createdAt,value
2022-09-06T00:00:22.340Z,15.60
2022-09-06T00:02:52.809Z,15.60
2022-09-06T00:05:23.754Z,15.60
2022-09-06T00:07:54.162Z,15.50
2022-09-06T00:10:24.924Z,15.50
2022-09-06T00:12:57.851Z,15.40
2022-09-06T00:15:28.181Z,15.40
2022-09-06T00:18:01.281Z,15.30
2022-09-06T00:20:32.534Z,15.30
2022-09-06T00:23:06.522Z,15.20
2022-09-06T00:25:37.775Z,15.20
2022-09-06T00:28:10.810Z,15.10
2022-09-06T00:30:41.446Z,15.10
2022-09-06T00:33:11.884Z,15.10
2022-09-06T00:35:42.153Z,15.10
2022-09-06T00:38:12.567Z,15.10
2022-09-06T00:40:42.953Z,15.00
2022-09-06T00:43:15.922Z,15.10
2022-09-06T00:45:46.468Z,15.10
2022-09-06T00:48:17.542Z,15.10
2022-09-06T00:50:50.780Z,15.10
2022-09-06T00:53:22.129Z,15.10
2022-09-06T00:55:52.876Z,15.10
2022-09-06T00:58:27.130Z,15.10
2022-09-06T01:00:57.721Z,15.10
2022-09-06T01:03:29.022Z,15.10
2022-09-06T01:06:13.572Z,15.10
2022-09-06T01:09:02.436Z,15.10
2022-09-06T01:12:05.909Z,15.10
2022-09-06T01:14:57.196Z,15.10
2022-09-06T01:17:43.333Z,15.00
2022-09-06T01:20:31.988Z,15.00
2022-09-06T01:23:58.395Z,14.90
2022-09-06T01:26:49.516Z,14.90
2022-09-06T01:29:30.726Z,14.80
2022-09-06T01:32:09.699Z,14.80
2022-09-06T01:34:47.424Z,14.70
2022-09-06T01:37:22.041Z,14.70
2022-09-06T01:39:52.257Z,14.70
2022-09-06T01:42:26.511Z,14.70
2022-09-06T01:45:04.209Z,14.70
2022-09-06T01:47:52.117Z,14.60
2022-09-06T01:50:48.695Z,14.60
2022-09-06T01:53:39.309Z,14.60
2022-09-06T01:56:19.769Z,14.60
2022-09-06T01:59:09.487Z,14.60
2022-09-06T02:01:49.530Z,14.50
2022-09-06T02:04:24.824Z,14.50
2022-09-06T02:07:02.385Z,14.50
2022-09-06T02:09:40.359Z,14.50
2022-09-06T02:12:15.097Z,14.40
2022-09-06T02:14:53.106Z,14.40
2022-09-06T02:17:32.948Z,14.40
2022-09-06T02:20:07.895Z,14.30
2022-09-06T02:22:42.826Z,14.30
2022-09-06T02:25:18.557Z,14.30
2022-09-06T02:27:49.138Z,14.30
2022-09-06T02:30:20.041Z,14.30
2022-09-06T02:33:01.494Z,14.20
2022-09-06T02:35:32.244Z,14.20
2022-09-06T02:38:02.960Z,14.10
2022-09-06T02:40:33.361Z,14.10
2022-09-06T02:43:03.619Z,14.10
2022-09-06T02:45:34.015Z,14.10
2022-09-06T02:48:07.197Z,14.10
2022-09-06T02:50:37.784Z,14.10
2022-09-06T02:53:12.119Z,14.00
2022-09-06T02:55:43.341Z,14.00
2022-09-06T02:58:15.419Z,14.00
2022-09-06T03:00:45.870Z,13.90
2022-09-06T03:03:18.840Z,13.90
2022-09-06T03:05:51.636Z,13.90
2022-09-06T03:08:25.969Z,13.90
2022-09-06T03:10:58.697Z,13.90
2022-09-06T03:13:29.984Z,13.90
2022-09-06T03:16:01.958Z,13.90
2022-09-06T03:18:35.325Z,13.90
2022-09-06T03:21:06.028Z,13.90
2022-09-06T03:23:36.645Z,13.90
2022-09-06T03:26:07.197Z,13.90
2022-09-06T03:28:37.865Z,13.80
2022-09-06T03:31:08.728Z,13.80
2022-09-06T03:33:41.809Z,13.80
2022-09-06T03:36:12.412Z,13.80
2022-09-06T03:38:42.789Z,13.90
2022-09-06T03:41:13.194Z,13.90
2022-09-06T03:43:43.876Z,13.90
2022-09-06T03:46:14.583Z,13.90
2022-09-06T03:48:47.871Z,13.90
2022-09-06T03:51:18.191Z,13.90
2022-09-06T03:53:48.745Z,13.90
2022-09-06T03:56:20.643Z,13.80
2022-09-06T03:58:51.216Z,13.90
2022-09-06T04:01:21.689Z,13.80
2022-09-06T04:03:55.000Z,13.80
2022-09-06T04:06:25.368Z,13.80
2022-09-06T04:08:55.814Z,13.80
2022-09-06T04:11:26.174Z,13.80
2022-09-06T04:13:56.470Z,13.80
2022-09-06T04:16:26.908Z,13.70
2022-09-06T04:19:00.961Z,13.80
2022-09-06T04:21:31.528Z,13.70
2022-09-06T04:24:01.963Z,13.70
2022-09-06T04:26:32.526Z,13.70
2022-09-06T04:29:02.956Z,13.80
2022-09-06T04:31:33.373Z,13.80
2022-09-06T04:34:06.481Z,13.80
2022-09-06T04:36:37.477Z,13.80
2022-09-06T04:39:08.121Z,13.80
2022-09-06T04:41:38.467Z,13.80
2022-09-06T04:44:08.960Z,13.80
2022-09-06T04:46:39.537Z,13.70
2022-09-06T04:49:12.660Z,13.80
2022-09-06T04:51:43.220Z,13.70
2022-09-06T04:54:13.648Z,13.70
2022-09-06T04:56:44.012Z,13.70
2022-09-06T04:59:14.557Z,13.80
2022-09-06T05:01:44.816Z,13.70
2022-09-06T05:04:17.944Z,13.70
2022-09-06T05:06:48.476Z,13.70
2022-09-06T05:09:18.912Z,13.70
2022-09-06T05:11:50.038Z,13.70
2022-09-06T05:14:20.477Z,13.70
2022-09-06T05:16:50.782Z,13.70
2022-09-06T05:19:24.228Z,13.70
2022-09-06T05:21:54.844Z,13.80
2022-09-06T05:24:25.039Z,13.70
2022-09-06T05:26:55.429Z,13.70
2022-09-06T05:29:30.381Z,13.80
2022-09-06T05:32:01.085Z,13.80
2022-09-06T05:34:34.088Z,13.90
2022-09-06T05:37:04.609Z,13.90
2022-09-06T05:39:34.868Z,13.90
2022-09-06T05:42:07.030Z,13.90
2022-09-06T05:44:37.698Z,13.90
2022-09-06T05:47:08.535Z,14.00
2022-09-06T05:49:41.769Z,14.00
2022-09-06T05:52:12.177Z,14.10
2022-09-06T05:54:42.697Z,14.10
2022-09-06T05:57:13.000Z,14.10
2022-09-06T05:59:43.433Z,14.20
2022-09-06T06:02:13.801Z,14.20
2022-09-06T06:04:46.676Z,14.20
2022-09-06T06:07:17.224Z,14.30
2022-09-06T06:09:47.668Z,14.30
2022-09-06T06:12:17.985Z,14.40
2022-09-06T06:14:48.463Z,14.40
2022-09-06T06:17:19.293Z,14.50
2022-09-06T06:19:52.319Z,14.50
2022-09-06T06:22:22.772Z,14.60
2022-09-06T06:24:53.068Z,14.60
2022-09-06T06:27:23.644Z,14.50
2022-09-06T06:29:53.976Z,14.60
2022-09-06T06:32:24.307Z,14.60
2022-09-06T06:34:57.352Z,14.70
2022-09-06T06:37:27.538Z,14.70
2022-09-06T06:39:59.131Z,14.70
2022-09-06T06:42:29.595Z,14.90
2022-09-06T06:45:00.488Z,15.00
2022-09-06T06:47:31.107Z,15.20
2022-09-06T06:50:04.038Z,15.40
2022-09-06T06:52:34.650Z,15.50
2022-09-06T06:55:06.117Z,15.70
2022-09-06T06:57:36.353Z,15.90
2022-09-06T07:00:09.236Z,16.10
2022-09-06T07:02:39.697Z,16.10
2022-09-06T07:08:03.288Z,16.20
2022-09-06T07:10:34.295Z,16.40
2022-09-06T07:13:04.994Z,16.40
2022-09-06T07:15:35.455Z,16.40
2022-09-06T07:18:06.062Z,16.50
2022-09-06T07:26:22.635Z,16.80
2022-09-06T07:28:56.100Z,17.00
2022-09-06T07:34:18.107Z,17.10
2022-09-06T07:36:51.201Z,17.00
2022-09-06T07:39:21.708Z,17.30
2022-09-06T07:41:52.364Z,17.40
2022-09-06T07:44:22.841Z,17.20
2022-09-06T07:46:53.686Z,17.50
2022-09-06T07:49:24.226Z,17.70
2022-09-06T07:51:57.176Z,17.50
2022-09-06T07:54:31.443Z,17.60
2022-09-06T07:57:02.036Z,17.70
2022-09-06T07:59:32.383Z,17.80
2022-09-06T08:02:02.857Z,17.90
2022-09-06T08:04:34.350Z,17.90
2022-09-06T08:09:57.867Z,17.90
2022-09-06T08:12:29.326Z,17.90
2022-09-06T08:14:59.668Z,17.70
2022-09-06T08:17:31.396Z,17.80
2022-09-06T08:20:01.637Z,17.80
2022-09-06T08:22:36.123Z,17.80
2022-09-06T08:25:06.778Z,17.80
2022-09-06T08:27:37.187Z,17.90
2022-09-06T08:30:09.393Z,18.00
2022-09-06T08:32:41.352Z,18.00
2022-09-06T08:35:13.448Z,17.80
2022-09-06T08:37:46.492Z,17.70
2022-09-06T08:40:23.964Z,17.80
2022-09-06T08:42:55.113Z,17.90
2022-09-06T08:45:25.849Z,17.90
2022-09-06T08:48:04.688Z,18.00
2022-09-06T08:50:35.645Z,18.20
2022-09-06T08:53:18.149Z,18.10
2022-09-06T08:55:55.828Z,18.20
2022-09-06T08:58:41.107Z,18.40
2022-09-06T09:01:18.887Z,18.40
2022-09-06T09:03:50.471Z,18.40
2022-09-06T09:06:20.812Z,18.50
2022-09-06T09:09:03.606Z,18.60
2022-09-06T09:11:36.374Z,18.70
2022-09-06T09:14:15.052Z,18.80
2022-09-06T09:16:45.916Z,18.80
2022-09-06T09:19:17.154Z,18.80
2022-09-06T09:21:47.877Z,18.80
2022-09-06T09:24:20.918Z,18.80
2022-09-06T09:26:56.962Z,19.00
2022-09-06T09:29:30.235Z,19.00
2022-09-06T09:32:01.573Z,19.00
2022-09-06T09:34:35.212Z,19.00
2022-09-06T09:40:16.892Z,19.30
2022-09-06T09:42:47.837Z,19.40
2022-09-06T09:45:31.467Z,19.40
2022-09-06T09:48:27.411Z,19.50
2022-09-06T09:50:58.756Z,19.80
2022-09-06T09:53:29.532Z,20.10
2022-09-06T09:56:02.832Z,20.30
2022-09-06T09:58:38.714Z,20.30
2022-09-06T10:01:25.091Z,20.20
2022-09-06T10:07:09.820Z,20.30
2022-09-06T10:09:44.910Z,20.30
2022-09-06T10:12:22.152Z,20.20
2022-09-06T10:14:53.456Z,20.20
2022-09-06T10:17:32.610Z,20.10
2022-09-06T10:20:08.964Z,20.00
2022-09-06T10:22:52.328Z,20.10
2022-09-06T10:25:49.781Z,20.10
2022-09-06T10:28:32.985Z,20.20
2022-09-06T10:31:45.748Z,20.40
2022-09-06T10:34:47.337Z,20.50
2022-09-06T10:37:36.573Z,20.40
2022-09-06T10:40:11.495Z,20.40
2022-09-06T10:42:46.735Z,20.40
2022-09-06T10:45:39.336Z,20.40
2022-09-06T10:48:16.451Z,20.30
2022-09-06T10:50:54.390Z,20.30
2022-09-06T10:53:40.490Z,20.30
2022-09-06T10:56:14.579Z,20.30
2022-09-06T11:02:06.526Z,20.30
2022-09-06T11:07:34.577Z,20.30
2022-09-06T11:10:11.968Z,20.30
2022-09-06T11:12:50.865Z,20.40
2022-09-06T11:15:23.305Z,20.40
2022-09-06T11:18:03.479Z,20.40
2022-09-06T11:20:41.415Z,20.50
2022-09-06T11:23:44.120Z,20.50
2022-09-06T11:26:36.261Z,20.50
2022-09-06T11:29:10.654Z,20.60
2022-09-06T11:34:57.199Z,20.50
2022-09-06T11:37:32.875Z,20.60
2022-09-06T11:43:20.734Z,20.70
2022-09-06T11:45:53.945Z,20.80
2022-09-06T11:48:38.137Z,20.90
2022-09-06T11:51:13.569Z,20.90
2022-09-06T11:54:21.983Z,21.00
2022-09-06T11:57:01.405Z,21.10
2022-09-06T11:59:56.897Z,21.10
2022-09-06T12:02:41.008Z,21.00
2022-09-06T12:05:16.592Z,21.00
2022-09-06T12:08:40.578Z,20.90
2022-09-06T12:11:36.956Z,20.90
2022-09-06T12:14:11.215Z,21.00
2022-09-06T12:17:20.997Z,21.00
2022-09-06T12:19:54.939Z,21.10
2022-09-06T12:23:01.006Z,21.00
2022-09-06T12:25:58.695Z,21.10
2022-09-06T12:28:53.557Z,21.10
2022-09-06T12:31:38.100Z,21.00
2022-09-06T12:34:25.253Z,21.00
2022-09-06T12:37:02.341Z,21.10
2022-09-06T12:39:33.063Z,21.00
2022-09-06T12:42:06.615Z,21.00
2022-09-06T12:44:44.235Z,21.00
2022-09-06T12:47:18.579Z,21.10
2022-09-06T12:49:48.889Z,21.10
2022-09-06T12:52:23.601Z,21.10
2022-09-06T12:54:54.161Z,21.10
2022-09-06T12:57:28.137Z,21.20
2022-09-06T13:00:01.845Z,21.20
2022-09-06T13:02:39.002Z,21.20
2022-09-06T13:05:12.516Z,21.30
2022-09-06T13:07:48.488Z,21.30
2022-09-06T13:10:23.899Z,21.30
2022-09-06T13:12:55.470Z,21.40
2022-09-06T13:15:31.391Z,21.40
2022-09-06T13:18:27.371Z,21.50
2022-09-06T13:21:03.379Z,21.50
2022-09-06T13:23:44.322Z,21.60
2022-09-06T13:26:14.827Z,21.50
2022-09-06T13:28:45.365Z,21.50
2022-09-06T13:31:26.393Z,21.50
2022-09-06T13:34:00.183Z,21.50
2022-09-06T13:36:32.734Z,21.40
2022-09-06T13:39:04.528Z,21.50
2022-09-06T13:41:44.599Z,21.50
2022-09-06T13:44:23.856Z,21.50
2022-09-06T13:46:58.336Z,21.50
2022-09-06T13:49:28.856Z,21.50
2022-09-06T13:52:04.121Z,21.50
2022-09-06T13:54:37.297Z,21.50
2022-09-06T13:57:07.864Z,21.50
2022-09-06T13:59:38.409Z,21.40
2022-09-06T14:02:15.223Z,21.40
2022-09-06T14:04:45.733Z,21.40
2022-09-06T14:07:16.138Z,21.30
2022-09-06T14:09:47.592Z,21.30
2022-09-06T14:12:17.996Z,21.30
2022-09-06T14:14:48.201Z,21.30
2022-09-06T14:17:21.022Z,21.30
2022-09-06T14:19:51.329Z,21.40
2022-09-06T14:22:21.625Z,21.40
2022-09-06T14:24:51.824Z,21.40
2022-09-06T14:27:22.352Z,21.40
2022-09-06T14:29:52.740Z,21.50
2022-09-06T14:32:26.763Z,21.50
2022-09-06T14:34:57.055Z,21.50
2022-09-06T14:37:27.465Z,21.50
2022-09-06T14:39:57.929Z,21.40
2022-09-06T14:42:28.603Z,21.40
2022-09-06T14:44:58.816Z,21.40
2022-09-06T14:47:31.998Z,21.30
2022-09-06T14:50:02.431Z,21.40
2022-09-06T14:52:32.730Z,21.40
2022-09-06T14:55:02.922Z,21.50
2022-09-06T14:57:33.024Z,21.40
2022-09-06T15:00:06.144Z,21.40
2022-09-06T15:02:39.434Z,21.40
2022-09-06T15:05:10.784Z,21.50
2022-09-06T15:07:41.903Z,21.50
2022-09-06T15:10:12.896Z,21.50
2022-09-06T15:12:43.098Z,21.50
2022-09-06T15:15:13.676Z,21.50
2022-09-06T15:17:46.480Z,21.50
2022-09-06T15:20:17.149Z,21.50
2022-09-06T15:22:47.506Z,21.60
2022-09-06T15:25:18.033Z,21.70
2022-09-06T15:27:48.615Z,21.70
2022-09-06T15:30:18.973Z,21.70
2022-09-06T15:32:51.864Z,21.60
2022-09-06T15:35:22.257Z,21.60
2022-09-06T15:37:52.461Z,21.60
2022-09-06T15:40:24.566Z,21.60
2022-09-06T15:42:54.768Z,21.70
2022-09-06T15:45:25.021Z,21.70
2022-09-06T15:47:58.254Z,21.70
2022-09-06T15:50:49.774Z,21.70
2022-09-06T15:53:18.804Z,21.70
2022-09-06T15:56:02.726Z,21.60
2022-09-06T15:58:33.433Z,21.50
2022-09-06T16:01:09.564Z,21.50
2022-09-06T16:03:44.947Z,21.40
2022-09-06T16:09:02.358Z,21.30
2022-09-06T16:11:36.943Z,21.30
2022-09-06T16:14:08.731Z,21.30
2022-09-06T16:16:40.671Z,21.20
2022-09-06T16:19:15.245Z,21.20
2022-09-06T16:21:46.404Z,21.20
2022-09-06T16:24:18.298Z,21.10
2022-09-06T16:26:49.764Z,21.00
2022-09-06T16:29:21.551Z,21.00
2022-09-06T16:31:54.302Z,21.00
2022-09-06T16:34:27.021Z,20.90
2022-09-06T16:36:57.384Z,20.90
2022-09-06T16:39:27.943Z,20.90
2022-09-06T16:41:58.205Z,20.90
2022-09-06T16:44:28.570Z,20.90
2022-09-06T16:47:01.173Z,20.80
2022-09-06T16:49:34.094Z,20.80
2022-09-06T16:52:04.332Z,20.70
2022-09-06T16:54:37.322Z,20.70
2022-09-06T16:57:08.080Z,20.70
2022-09-06T16:59:38.448Z,20.70
2022-09-06T17:02:09.241Z,20.70
2022-09-06T17:04:42.057Z,20.60
2022-09-06T17:07:12.351Z,20.70
2022-09-06T17:09:42.588Z,20.60
2022-09-06T17:12:12.678Z,20.60
2022-09-06T17:14:42.841Z,20.50
2022-09-06T17:17:10.596Z,20.50
2022-09-06T17:19:44.551Z,20.50
2022-09-06T17:22:16.193Z,20.40
2022-09-06T17:24:46.579Z,20.30
2022-09-06T17:27:16.840Z,20.30
2022-09-06T17:29:47.180Z,20.30
2022-09-06T17:32:17.333Z,20.20
2022-09-06T17:34:50.408Z,20.20
2022-09-06T17:37:20.653Z,20.10
2022-09-06T17:39:50.919Z,20.10
2022-09-06T17:42:21.225Z,20.10
2022-09-06T17:44:51.497Z,20.10
2022-09-06T17:47:21.764Z,20.00
2022-09-06T17:49:54.590Z,20.00
2022-09-06T17:52:26.383Z,19.90
2022-09-06T17:54:56.928Z,19.90
2022-09-06T17:57:27.183Z,19.90
2022-09-06T17:59:57.472Z,19.80
2022-09-06T18:02:27.740Z,19.70
2022-09-06T18:05:00.737Z,19.70
2022-09-06T18:07:31.372Z,19.70
2022-09-06T18:10:01.506Z,19.70
2022-09-06T18:12:31.823Z,19.70
2022-09-06T18:15:02.450Z,19.70
2022-09-06T18:17:33.128Z,19.60
2022-09-06T18:20:07.434Z,19.60
2022-09-06T18:22:38.854Z,19.60
2022-09-06T18:25:10.965Z,19.60
2022-09-06T18:27:41.258Z,19.60
2022-09-06T18:30:14.978Z,19.60
2022-09-06T18:32:45.469Z,19.50
2022-09-06T18:35:18.520Z,19.50
2022-09-06T18:37:48.764Z,19.50
2022-09-06T18:40:19.235Z,19.50
2022-09-06T18:42:49.787Z,19.50
2022-09-06T18:45:20.143Z,19.50
2022-09-06T18:47:50.297Z,19.50
2022-09-06T18:50:23.236Z,19.50
2022-09-06T18:52:54.145Z,19.40
2022-09-06T18:55:24.296Z,19.40
2022-09-06T18:57:55.312Z,19.40
2022-09-06T19:00:26.731Z,19.30
2022-09-06T19:02:57.047Z,19.30
2022-09-06T19:05:29.847Z,19.30
2022-09-06T19:08:00.435Z,19.30
2022-09-06T19:10:30.737Z,19.30
2022-09-06T19:13:00.939Z,19.20
2022-09-06T19:15:31.350Z,19.20
2022-09-06T19:18:02.413Z,19.10
2022-09-06T19:20:35.356Z,19.10
2022-09-06T19:23:05.688Z,19.00
2022-09-06T19:25:35.903Z,19.00
2022-09-06T19:28:06.428Z,19.00
2022-09-06T19:30:36.632Z,18.90
2022-09-06T19:33:08.808Z,18.80
2022-09-06T19:36:00.960Z,18.80
2022-09-06T19:38:47.306Z,18.70
2022-09-06T19:41:23.328Z,18.80
2022-09-06T19:43:54.915Z,18.60
2022-09-06T19:46:25.854Z,18.70
2022-09-06T19:48:58.956Z,18.60
2022-09-06T19:51:33.183Z,18.60
2022-09-06T19:54:03.488Z,18.60
2022-09-06T19:56:36.671Z,18.50
2022-09-06T19:59:10.176Z,18.50
2022-09-06T20:01:42.352Z,18.50
2022-09-06T20:04:14.902Z,18.50
2022-09-06T20:06:47.673Z,18.40
2022-09-06T20:09:20.550Z,18.40
2022-09-06T20:11:50.781Z,18.40
2022-09-06T20:14:21.011Z,18.40
2022-09-06T20:16:51.452Z,18.40
2022-09-06T20:19:21.642Z,18.40
2022-09-06T20:21:54.861Z,18.30
2022-09-06T20:24:25.232Z,18.30
2022-09-06T20:26:55.391Z,18.30
2022-09-06T20:29:25.669Z,18.30
2022-09-06T20:31:56.172Z,18.30
2022-09-06T20:34:26.564Z,18.40
2022-09-06T20:36:59.805Z,18.40
2022-09-06T20:39:30.400Z,18.40
2022-09-06T20:42:00.888Z,18.40
2022-09-06T20:44:31.368Z,18.30
2022-09-06T20:47:01.843Z,18.30
2022-09-06T20:49:32.440Z,18.40
2022-09-06T20:52:05.923Z,18.40
2022-09-06T20:54:37.109Z,18.40
2022-09-06T20:57:07.616Z,18.40
2022-09-06T20:59:37.781Z,18.40
2022-09-06T21:02:08.152Z,18.40
2022-09-06T21:04:38.455Z,18.30
2022-09-06T21:07:11.681Z,18.30
2022-09-06T21:09:41.860Z,18.30
2022-09-06T21:12:12.137Z,18.30
2022-09-06T21:14:42.429Z,18.20
2022-09-06T21:17:12.642Z,18.20
2022-09-06T21:19:43.607Z,18.20
2022-09-06T21:22:18.232Z,18.10
2022-09-06T21:24:49.033Z,18.10
2022-09-06T21:27:19.261Z,18.00
2022-09-06T21:29:49.394Z,18.00
2022-09-06T21:32:19.633Z,18.00
2022-09-06T21:34:49.972Z,18.00
2022-09-06T21:37:22.973Z,18.00
2022-09-06T21:39:53.138Z,18.00
2022-09-06T21:42:23.525Z,18.00
2022-09-06T21:44:53.965Z,18.00
2022-09-06T21:47:24.140Z,18.00
2022-09-06T21:49:54.438Z,17.90
2022-09-06T21:52:30.609Z,18.00
2022-09-06T21:55:00.816Z,18.00
2022-09-06T21:57:31.120Z,17.90
2022-09-06T22:00:01.405Z,17.90
2022-09-06T22:02:31.684Z,17.90
2022-09-06T22:05:06.582Z,17.90
2022-09-06T22:07:39.452Z,17.90
2022-09-06T22:10:10.359Z,17.80
2022-09-06T22:12:40.505Z,17.80
2022-09-06T22:15:13.880Z,17.80
2022-09-06T22:17:44.163Z,17.80
2022-09-06T22:20:14.730Z,17.80
2022-09-06T22:22:48.311Z,17.80
2022-09-06T22:25:18.781Z,17.80
2022-09-06T22:27:48.945Z,17.90
2022-09-06T22:30:23.790Z,17.90
2022-09-06T22:32:56.156Z,17.90
2022-09-06T22:35:26.231Z,17.90
2022-09-06T22:37:59.004Z,17.90
2022-09-06T22:40:29.300Z,17.90
2022-09-06T22:42:59.973Z,17.90
2022-09-06T22:45:30.201Z,17.80
2022-09-06T22:48:00.440Z,17.90
2022-09-06T22:50:30.884Z,17.80
2022-09-06T22:53:04.146Z,17.80
2022-09-06T22:55:34.381Z,17.80
2022-09-06T22:58:04.606Z,17.80
2022-09-06T23:00:35.308Z,17.80
2022-09-06T23:03:05.656Z,17.70
2022-09-06T23:05:36.045Z,17.70
2022-09-06T23:08:09.130Z,17.70
2022-09-06T23:10:44.054Z,17.70
2022-09-06T23:13:14.544Z,17.60
2022-09-06T23:15:46.437Z,17.60
2022-09-06T23:18:17.344Z,17.50
2022-09-06T23:20:47.533Z,17.50
2022-09-06T23:23:20.410Z,17.50
2022-09-06T23:25:50.701Z,17.50
2022-09-06T23:28:20.808Z,17.40
2022-09-06T23:30:51.049Z,17.40
2022-09-06T23:33:21.119Z,17.30
2022-09-06T23:35:51.400Z,17.30
2022-09-06T23:38:24.311Z,17.30
2022-09-06T23:40:54.593Z,17.20
2022-09-06T23:43:24.831Z,17.10
2022-09-06T23:45:55.213Z,17.20
2022-09-06T23:48:25.791Z,17.10
2022-09-06T23:50:56.154Z,17.00
2022-09-06T23:53:29.420Z,16.90
2022-09-06T23:55:59.780Z,16.90
2022-09-06T23:58:30.575Z,16.80
